Crews, Louisiana
Current Conditions -  °F | °C
As of 8:15 AM on Saturday 20 Dec 2014 (Local Time) from KIER Reporting Station
Overcast Overcast  
Wind Chill: 41°   Ceiling: 700
Heat Index: 46°   Visibility: 10mi
Dew Point: 44°   Wind: 9mph
Humidity: 94%   Direction: 30°NNE
Pressure: 30.24"   Gusts: NA
Location:  31.6668°N, 92.8023°W
Report Text: KIER 201415Z AUTO 03008KT 10SM OVC007 08/07 A3024 RMK AO2 T00770068
Loading
Personal Weather Stations






























Interactive Weather Map New forecast layout! Learn more

10-Day Weather Forecast

Advertisements
Track Severe Weather on mobile